Carolina, PR (00979)

7:35 AM AST on August 30, 2016 (GMT -0400)
Ciudad Jardin | | Change Station

Elev 10 ft 18.37 °N, 65.93 °W | Updated 5 seconds ago

Scattered Clouds
Scattered Clouds
82.9 °F
Feels Like 92 °F
N
0.0
Wind Variable Wind from SE
Gusts 0.0 mph

Today
High -- | Low -- °F
--% Chance of Precip.
Yesterday
High -- | Low -- °F
Precip. -- in
Pressure 30.01 in
Visibility 9.0 miles
Clouds Few 2700 ft
Scattered Clouds 7000 ft
Heat Index 92 °F
Dew Point 77 °F
Humidity 83%
Rainfall 0.00 in
Snow Depth Not available.
6:09 AM 6:39 PM
Waning Crescent, 4% visible
METAR TJSJ 301056Z 13003KT 9SM FEW027 SCT070 28/25 A3001 RMK AO2 SLP162 HZ ALQDS T02780250
Pressure 30.01 in
Visibility 9.0 miles
Clouds Few 2700 ft
Scattered Clouds 7000 ft
Heat Index 92 °F
Dew Point 77 °F
Humidity 83%
Rainfall 0.00 in
Snow Depth Not available.
6:09 AM 6:39 PM
Waning Crescent, 4% visible
METAR TJSJ 301056Z 13003KT 9SM FEW027 SCT070 28/25 A3001 RMK AO2 SLP162 HZ ALQDS T02780250

10-Day Weather Forecast

Almanac

Astronomy

Aug. 30, 2016 Rise Set
Actual Time
Civil Twilight
Nautical Twilight
Astronomical Twilight
Moon
Length of Visible Light
Length of Day
Tomorrow will be .
, % of the Moon is Illuminated

Today's Extremes

State Highs State Lows

Community

WunderPhotos

Upload Photos

1,935,814 photos uploaded!

WunderBlog® & News

Nearby

Air Quality

  Air Quality AQ Index Pollutant
Not available.

Snow Depth

Station Depth Elevation

Earthquake Activity

City Distance Mag. Time & Date
Minimum magnitude displayed is 2.5.

Coastal Water Temperatures

Place Temperature

Stations

Nearby Weather Stations

Station Location Temp. Windchill Dew Point Humidity Wind Precip. Elev Updated Type
                   

Watches & Warnings

There are currently no watches in effect.